Ride Results

Cardiff - Collie (11-08-2001)
Ride distance: 100.0 km

Outcomes - Cardiff - Collie (11-08-2001)
Division No. of Entries Retired / DNE Completed Withdrawn Ineligible V/O Percentage Completed
HW 6 - 2 - - 4 33.33%
MW 14 - 11 1 - 2 78.57%
LW 6 - 5 - - 1 83.33%
JN 1 - 1 - - - 100.00%
Totals 27 - 19 1 - 7 70.37%
Results - Cardiff - Collie (11-08-2001)
No. Rider Horse Place Time Leg Speeds Total
Km/Hr
H/R bpm
Heavyweight
23 Keith Davenport Balgownie Berk 1 7:40:00 17.7, 13.0, 10.3 13.04 38, 42, 43, 51 (Avg:45)
9 Robert Burns Naadahji 2 8:43:00 15.1, 10.8, 9.4 11.47 36, 41, 40, 49 (Avg:43)
13 Norb Radny Yarra View Amber Heart Rate L3 0:00:00 20.6, 17.6, 13.1 - 30, 41, 35, 68 (Avg:48)
16 Patrick Daly Kalkadoon Sharjah Lame L2 0:00:00 15.6, 10.6 - 37, 44, 43 (Avg:43)
7 Damian Lowry Marbling Naida Lame L1 0:00:00 15.6 - 32, 36 (Avg:36)
17 David Riches Yaldon Gwai Sadiiq Lame L1 0:00:00 19.6 - 33, 38 (Avg:38)
Middleweight
22 Liz Cullam Al Barak 1 6:18:00 18.0, 18.1, 13.4 15.87 24, 35, 37, 42 (Avg:38)
8 Frances Overheu Rumpole 2 6:23:00 19.0, 15.7, 13.2 15.67 34, 42, 44, 43 (Avg:43)
21 Rhonda Seeber Abba 2 6:23:00 19.0, 15.7, 13.2 15.67 48, 44, 50, 54 (Avg:49)
18 Baz O'Driscoll Remaal 4 7:04:00 18.1, 14.6, 11.4 14.15 29, 45, 39, 50 (Avg:44)
19 Megan Yearbury Naahdeeky 4 7:04:00 18.8, 13.7, 11.4 14.15 38, 41, 43, 58 (Avg:47)
5 Michelle Lewis Yeoman Zadaya 6 7:32:00 16.9, 15.1, 10.3 13.27 41, 43, 44, 52 (Avg:46)
6 Jenny McCamish Maramanup Masouri 6 7:32:00 16.9, 15.1, 10.3 13.27 33, 37, 40, 42 (Avg:39)
11 Kate Caughey Maralinga Mariah 8 7:43:00 15.9, 12.3, 11.1 12.96 30, 38, 46, 54 (Avg:46)
14 Deb Ryan Anabriar Kyandra 8 7:43:00 16.2, 15.1, 10.1 12.96 42, 40, 42, 58 (Avg:46)
24 Sue Goodwin Anak Karat 10 8:00:00 18.4, 10.9, 9.9 12.50 36, 45, 36, 36 (Avg:39)
4 Caitlin Liebmann-Reimers Mexico 11 9:16:00 12.9, 9.9, 9.5 10.79 32, 41, 46, 52 (Avg:46)
15 Elyse Hall Maralinga Imagine That Lame L2 0:00:00 19.6, 17.3 - 32, 37, 39 (Avg:38)
3 Bruce Scott Calico Buck Withdrawn L2 0:00:00 - - 32, 38, 42 (Avg:40)
1 Kathy Williams Balgownie Minnie Richie Lame L2 0:00:00 16.2, 15.9 - 34, 43, 43 (Avg:43)
Lightweight
25 Carol Willcocks Kaisi Shade 1 7:40:00 15.3, 13.1, 11.2 13.04 36, 39, 42, 42 (Avg:41)
12 Sue House Chimanimani 2 7:58:00 17.5, 11.9, 9.9 12.55 36, 42, 42, 50 (Avg:44)
2 Diana McGirr Marbling Miranda 2 7:58:00 16.4, 13.1, 9.9 12.55 36, 43, 47, 50 (Avg:46)
27 Karen Colli Lady 4 8:30:00 12.4, 11.7, 11.1 11.76 37, 42, 46, 52 (Avg:46)
10 Miriam Burns Rushlake Georgiana 5 8:43:00 15.1, 10.8, 9.4 11.47 40, 42, 44, 49 (Avg:45)
20 Linda Dix Ebony Rose Lame L1 0:00:00 17.2 - 35, 48 (Avg:48)
Junior
26 Amanda Colli Robert 1 8:30:00 12.4, 11.7, 11.1 11.76 34, 40, 44, 52 (Avg:45)